createdAt,value
2019-06-26T00:00:24.128Z,18.07
2019-06-26T00:02:58.758Z,18.90
2019-06-26T00:05:33.738Z,18.90
2019-06-26T00:08:08.369Z,18.32
2019-06-26T00:10:43.040Z,18.37
2019-06-26T00:13:26.360Z,18.85
2019-06-26T00:15:54.145Z,19.02
2019-06-26T00:18:28.914Z,18.85
2019-06-26T00:21:03.731Z,17.70
2019-06-26T00:23:38.344Z,16.87
2019-06-26T00:26:13.075Z,17.30
2019-06-26T00:28:47.785Z,17.98
2019-06-26T00:31:22.927Z,17.25
2019-06-26T00:33:57.611Z,19.30
2019-06-26T00:36:32.407Z,18.70
2019-06-26T00:39:07.965Z,18.00
2019-06-26T00:41:42.757Z,19.05
2019-06-26T00:44:17.513Z,17.98
2019-06-26T00:46:52.325Z,18.48
2019-06-26T00:49:27.186Z,20.17
2019-06-26T00:52:01.983Z,20.35
2019-06-26T00:54:36.753Z,20.12
2019-06-26T00:57:11.560Z,20.00
2019-06-26T00:59:46.320Z,20.62
2019-06-26T01:02:21.521Z,18.48
2019-06-26T01:04:57.938Z,19.70
2019-06-26T01:07:34.371Z,19.25
2019-06-26T01:10:11.208Z,19.75
2019-06-26T01:12:45.929Z,19.32
2019-06-26T01:15:20.695Z,20.17
2019-06-26T01:17:55.494Z,19.50
2019-06-26T01:20:30.266Z,19.25
2019-06-26T01:23:05.063Z,19.55
2019-06-26T01:25:39.748Z,20.30
2019-06-26T01:28:14.394Z,20.05
2019-06-26T01:30:49.041Z,20.40
2019-06-26T01:33:23.845Z,19.60
2019-06-26T01:35:58.614Z,19.90
2019-06-26T01:38:33.295Z,19.48
2019-06-26T01:41:07.987Z,20.15
2019-06-26T01:43:42.823Z,21.70
2019-06-26T01:46:17.507Z,21.42
2019-06-26T01:48:52.307Z,20.82
2019-06-26T01:51:27.013Z,20.85
2019-06-26T01:54:01.699Z,21.82
2019-06-26T01:56:36.542Z,21.55
2019-06-26T01:59:11.262Z,19.60
2019-06-26T02:01:45.886Z,19.95
2019-06-26T02:04:20.678Z,19.95
2019-06-26T02:06:55.463Z,20.12
2019-06-26T02:09:30.260Z,19.73
2019-06-26T02:12:05.019Z,20.10
2019-06-26T02:14:39.691Z,21.07
2019-06-26T02:17:14.426Z,20.60
2019-06-26T02:19:49.142Z,21.25
2019-06-26T02:22:23.903Z,22.00
2019-06-26T02:24:58.635Z,20.92
2019-06-26T02:27:33.399Z,21.75
2019-06-26T02:30:08.454Z,21.30
2019-06-26T02:32:43.111Z,21.62
2019-06-26T02:35:17.997Z,20.32
2019-06-26T02:37:53.790Z,21.42
2019-06-26T02:40:28.563Z,21.45
2019-06-26T02:43:06.702Z,20.70
2019-06-26T02:45:39.781Z,22.32
2019-06-26T02:48:14.548Z,21.62
2019-06-26T02:50:49.292Z,22.13
2019-06-26T02:53:24.057Z,20.57
2019-06-26T02:55:58.795Z,20.48
2019-06-26T02:58:33.554Z,20.08
2019-06-26T03:01:08.374Z,20.95
2019-06-26T03:03:43.131Z,19.50
2019-06-26T03:06:17.931Z,20.90
2019-06-26T03:08:52.694Z,20.57
2019-06-26T03:11:27.439Z,18.52
2019-06-26T03:14:02.205Z,19.23
2019-06-26T03:16:36.864Z,19.62
2019-06-26T03:19:11.550Z,19.80
2019-06-26T03:21:46.356Z,19.42
2019-06-26T03:24:21.045Z,19.90
2019-06-26T03:26:55.734Z,19.17
2019-06-26T03:29:30.495Z,18.20
2019-06-26T03:32:05.312Z,17.30
2019-06-26T03:34:39.926Z,17.25
2019-06-26T03:37:14.616Z,17.52
2019-06-26T03:39:49.386Z,17.35
2019-06-26T03:42:24.003Z,16.95
2019-06-26T03:44:58.701Z,16.23
2019-06-26T03:47:33.431Z,16.37
2019-06-26T03:50:09.099Z,16.82
2019-06-26T03:52:43.827Z,15.43
2019-06-26T03:55:18.556Z,15.35
2019-06-26T03:57:53.312Z,15.40
2019-06-26T04:00:41.949Z,14.40
2019-06-26T04:03:16.744Z,14.98
2019-06-26T04:05:51.444Z,15.48
2019-06-26T04:08:26.198Z,15.85
2019-06-26T04:11:00.983Z,17.57
2019-06-26T04:13:35.631Z,17.35
2019-06-26T04:16:10.339Z,16.55
2019-06-26T04:18:44.992Z,15.72
2019-06-26T04:21:19.688Z,15.05
2019-06-26T04:23:54.358Z,16.40
2019-06-26T04:26:29.121Z,15.95
2019-06-26T04:29:04.132Z,14.68
2019-06-26T04:31:38.883Z,15.10
2019-06-26T04:34:13.538Z,15.58
2019-06-26T04:36:49.974Z,14.47
2019-06-26T04:39:24.711Z,15.85
2019-06-26T04:41:59.480Z,15.28
2019-06-26T04:44:34.146Z,15.63
2019-06-26T04:47:08.789Z,15.50
2019-06-26T04:49:43.579Z,14.78
2019-06-26T04:52:18.367Z,14.85
2019-06-26T04:54:53.027Z,14.78
2019-06-26T04:57:27.643Z,14.43
2019-06-26T05:00:02.520Z,14.30
2019-06-26T05:02:37.322Z,14.10
2019-06-26T05:05:12.111Z,14.25
2019-06-26T05:07:46.807Z,13.62
2019-06-26T05:10:22.078Z,14.80
2019-06-26T05:12:56.844Z,13.65
2019-06-26T05:15:31.580Z,13.35
2019-06-26T05:18:06.350Z,12.93
2019-06-26T05:20:41.142Z,12.30
2019-06-26T05:23:15.843Z,11.83
2019-06-26T05:25:50.582Z,12.93
2019-06-26T05:28:25.277Z,12.40
2019-06-26T05:31:00.093Z,12.15
2019-06-26T05:33:34.788Z,10.90
2019-06-26T05:36:09.551Z,10.75
2019-06-26T05:38:44.139Z,10.93
2019-06-26T05:41:19.000Z,10.88
2019-06-26T05:43:53.597Z,11.10
2019-06-26T05:46:31.632Z,11.18
2019-06-26T05:49:04.650Z,11.55
2019-06-26T05:51:39.376Z,12.13
2019-06-26T05:54:15.636Z,11.65
2019-06-26T05:56:50.426Z,10.85
2019-06-26T05:59:25.119Z,11.60
2019-06-26T06:02:00.617Z,11.00
2019-06-26T06:04:35.221Z,10.53
2019-06-26T06:07:10.122Z,10.28
2019-06-26T06:09:44.873Z,10.70
2019-06-26T06:12:19.671Z,12.35
2019-06-26T06:14:54.443Z,11.85
2019-06-26T06:17:29.177Z,12.03
2019-06-26T06:20:05.811Z,10.93
2019-06-26T06:22:40.544Z,11.03
2019-06-26T06:25:15.304Z,11.40
2019-06-26T06:27:49.976Z,12.05
2019-06-26T06:30:24.848Z,10.78
2019-06-26T06:32:59.646Z,11.10
2019-06-26T06:35:34.414Z,11.20
2019-06-26T06:38:09.135Z,10.32
2019-06-26T06:40:43.899Z,11.03
2019-06-26T06:43:19.079Z,11.15
2019-06-26T06:45:53.809Z,10.90
2019-06-26T06:48:28.496Z,10.10
2019-06-26T06:51:03.212Z,10.90
2019-06-26T06:53:37.924Z,10.50
2019-06-26T06:56:12.615Z,9.98
2019-06-26T06:58:49.860Z,10.30
2019-06-26T07:01:24.649Z,9.53
2019-06-26T07:03:59.367Z,9.50
2019-06-26T07:06:34.167Z,10.25
2019-06-26T07:09:08.965Z,10.85
2019-06-26T07:11:43.744Z,10.03
2019-06-26T07:14:18.546Z,9.78
2019-06-26T07:16:53.315Z,10.58
2019-06-26T07:19:28.238Z,10.93
2019-06-26T07:22:06.234Z,10.45
2019-06-26T07:24:39.548Z,10.82
2019-06-26T07:27:14.306Z,10.18
2019-06-26T07:29:49.047Z,10.30
2019-06-26T07:32:23.829Z,10.32
2019-06-26T07:34:58.607Z,10.35
2019-06-26T07:37:34.421Z,10.78
2019-06-26T07:40:09.525Z,10.55
2019-06-26T07:42:44.317Z,10.30
2019-06-26T07:45:19.224Z,10.50
2019-06-26T07:47:53.922Z,10.53
2019-06-26T07:50:32.363Z,10.32
2019-06-26T07:53:07.363Z,10.68
2019-06-26T07:55:44.193Z,9.55
2019-06-26T07:58:18.958Z,9.35
2019-06-26T08:00:53.741Z,10.10
2019-06-26T08:03:28.508Z,9.35
2019-06-26T08:06:03.238Z,8.95
2019-06-26T08:08:37.867Z,9.28
2019-06-26T08:11:12.585Z,9.10
2019-06-26T08:13:47.347Z,8.48
2019-06-26T08:16:22.546Z,8.53
2019-06-26T08:18:57.274Z,8.88
2019-06-26T08:21:32.053Z,8.93
2019-06-26T08:24:06.749Z,8.43
2019-06-26T08:26:41.489Z,8.73
2019-06-26T08:29:16.164Z,8.10
2019-06-26T08:31:50.882Z,7.97
2019-06-26T08:34:25.649Z,8.15
2019-06-26T08:37:00.386Z,7.55
2019-06-26T08:39:35.138Z,7.42
2019-06-26T08:42:09.961Z,7.70
2019-06-26T08:44:44.659Z,8.00
2019-06-26T08:47:19.388Z,8.00
2019-06-26T08:49:54.143Z,7.53
2019-06-26T08:52:28.936Z,7.58
2019-06-26T08:55:04.921Z,8.18
2019-06-26T08:57:39.693Z,8.15
2019-06-26T09:00:15.224Z,7.75
2019-06-26T09:02:49.894Z,7.97
2019-06-26T09:05:24.662Z,7.40
2019-06-26T09:07:59.383Z,7.97
2019-06-26T09:10:34.165Z,7.47
2019-06-26T09:13:08.956Z,7.55
2019-06-26T09:15:43.631Z,6.72
2019-06-26T09:18:34.432Z,7.58
2019-06-26T09:20:54.782Z,7.70
2019-06-26T09:23:31.188Z,7.95
2019-06-26T09:26:05.809Z,7.60
2019-06-26T09:28:40.610Z,8.20
2019-06-26T09:31:15.291Z,8.28
2019-06-26T09:33:50.005Z,7.35
2019-06-26T09:36:24.756Z,7.70
2019-06-26T09:38:59.479Z,7.42
2019-06-26T09:41:34.296Z,8.28
2019-06-26T09:44:09.042Z,7.65
2019-06-26T09:46:43.784Z,7.87
2019-06-26T09:49:18.593Z,7.72
2019-06-26T09:51:53.298Z,8.05
2019-06-26T09:54:27.970Z,7.97
2019-06-26T09:57:02.711Z,6.92
2019-06-26T09:59:37.427Z,6.90
2019-06-26T10:02:12.982Z,7.58
2019-06-26T10:04:47.782Z,7.28
2019-06-26T10:07:22.545Z,8.05
2019-06-26T10:09:57.374Z,7.53
2019-06-26T10:12:32.049Z,7.50
2019-06-26T10:15:07.046Z,7.30
2019-06-26T10:17:41.800Z,7.80
2019-06-26T10:20:16.543Z,7.28
2019-06-26T10:22:51.204Z,7.15
2019-06-26T10:25:26.028Z,7.85
2019-06-26T10:28:00.761Z,7.42
2019-06-26T10:30:35.521Z,7.45
2019-06-26T10:33:10.376Z,7.92
2019-06-26T10:35:45.173Z,7.20
2019-06-26T10:38:19.858Z,7.87
2019-06-26T10:40:54.655Z,7.28
2019-06-26T10:43:29.476Z,6.90
2019-06-26T10:46:04.923Z,7.53
2019-06-26T10:48:39.595Z,7.62
2019-06-26T10:51:14.272Z,7.50
2019-06-26T10:53:48.951Z,7.33
2019-06-26T10:56:23.685Z,8.10
2019-06-26T10:58:58.288Z,7.37
2019-06-26T11:01:33.071Z,7.90
2019-06-26T11:04:08.422Z,7.47
2019-06-26T11:06:43.218Z,7.62
2019-06-26T11:09:17.841Z,7.47
2019-06-26T11:11:52.612Z,7.47
2019-06-26T11:14:27.368Z,7.72
2019-06-26T11:17:02.101Z,8.25
2019-06-26T11:19:43.725Z,7.92
2019-06-26T11:22:13.130Z,7.80
2019-06-26T11:24:47.841Z,7.60
2019-06-26T11:27:22.605Z,7.58
2019-06-26T11:29:57.227Z,8.18
2019-06-26T11:32:32.018Z,7.58
2019-06-26T11:35:07.966Z,8.00
2019-06-26T11:37:42.759Z,8.00
2019-06-26T11:40:17.612Z,7.35
2019-06-26T11:42:52.353Z,7.55
2019-06-26T11:45:27.113Z,7.42
2019-06-26T11:48:01.912Z,7.80
2019-06-26T11:50:36.667Z,7.35
2019-06-26T11:53:11.495Z,8.05
2019-06-26T11:55:46.547Z,7.30
2019-06-26T11:58:21.276Z,7.08
2019-06-26T12:00:55.994Z,7.00
2019-06-26T12:03:30.699Z,6.33
2019-06-26T12:06:15.676Z,6.97
2019-06-26T12:08:41.924Z,7.00
2019-06-26T12:11:16.611Z,7.25
2019-06-26T12:13:51.325Z,7.60
2019-06-26T12:16:26.009Z,7.92
2019-06-26T12:19:00.673Z,7.60
2019-06-26T12:21:35.435Z,8.05
2019-06-26T12:24:10.149Z,8.30
2019-06-26T12:26:44.846Z,8.60
2019-06-26T12:29:24.223Z,8.05
2019-06-26T12:31:58.914Z,7.10
2019-06-26T12:34:33.749Z,7.65
2019-06-26T12:37:08.408Z,7.22
2019-06-26T12:39:43.052Z,8.00
2019-06-26T12:42:17.838Z,8.03
2019-06-26T12:44:52.634Z,7.30
2019-06-26T12:47:27.329Z,7.65
2019-06-26T12:50:02.748Z,7.12
2019-06-26T12:52:37.666Z,7.62
2019-06-26T12:55:12.527Z,7.17
2019-06-26T12:57:47.248Z,7.47
2019-06-26T13:00:22.366Z,7.60
2019-06-26T13:02:57.098Z,7.35
2019-06-26T13:05:35.643Z,7.83
2019-06-26T13:08:10.373Z,8.15
2019-06-26T13:10:50.058Z,7.80
2019-06-26T13:13:21.585Z,7.53
2019-06-26T13:15:56.271Z,7.75
2019-06-26T13:18:50.230Z,7.42
2019-06-26T13:21:25.340Z,7.45
2019-06-26T13:23:59.996Z,8.18
2019-06-26T13:26:34.776Z,7.60
2019-06-26T13:29:10.166Z,7.85
2019-06-26T13:31:45.798Z,7.78
2019-06-26T13:34:20.386Z,7.85
2019-06-26T13:36:55.096Z,7.87
2019-06-26T13:39:29.725Z,8.63
2019-06-26T13:42:04.522Z,7.50
2019-06-26T13:44:39.280Z,8.20
2019-06-26T13:47:14.007Z,7.90
2019-06-26T13:49:48.709Z,8.20
2019-06-26T13:52:23.359Z,7.78
2019-06-26T13:55:00.899Z,7.30
2019-06-26T13:57:35.951Z,7.92
2019-06-26T14:00:11.530Z,7.87
2019-06-26T14:02:46.270Z,7.40
2019-06-26T14:05:21.005Z,7.28
2019-06-26T14:07:55.723Z,7.90
2019-06-26T14:10:30.487Z,7.67
2019-06-26T14:13:05.362Z,7.60
2019-06-26T14:15:40.062Z,7.60
2019-06-26T14:18:14.918Z,7.90
2019-06-26T14:20:49.757Z,7.75
2019-06-26T14:23:25.421Z,7.90
2019-06-26T14:26:00.029Z,7.37
2019-06-26T14:28:34.732Z,7.62
2019-06-26T14:31:09.344Z,7.25
2019-06-26T14:33:44.183Z,8.00
2019-06-26T14:36:18.855Z,7.67
2019-06-26T14:38:53.545Z,7.70
2019-06-26T14:41:28.297Z,8.18
2019-06-26T14:44:03.183Z,8.35
2019-06-26T14:46:37.880Z,8.15
2019-06-26T14:49:15.430Z,8.35
2019-06-26T14:51:50.125Z,7.90
2019-06-26T14:54:24.812Z,8.03
2019-06-26T14:56:59.617Z,7.70
2019-06-26T14:59:34.439Z,8.03
2019-06-26T15:02:10.780Z,8.20
2019-06-26T15:04:46.233Z,8.85
2019-06-26T15:07:20.977Z,8.38
2019-06-26T15:09:55.754Z,8.75
2019-06-26T15:12:30.457Z,8.93
2019-06-26T15:15:06.912Z,8.63
2019-06-26T15:17:41.666Z,8.33
2019-06-26T15:20:18.129Z,8.80
2019-06-26T15:22:54.291Z,8.80
2019-06-26T15:25:29.028Z,9.28
2019-06-26T15:28:03.790Z,9.35
2019-06-26T15:30:38.590Z,9.03
2019-06-26T15:33:13.577Z,9.15
2019-06-26T15:35:48.226Z,8.88
2019-06-26T15:38:22.945Z,9.50
2019-06-26T15:40:57.576Z,9.00
2019-06-26T15:43:32.476Z,9.85
2019-06-26T15:46:08.749Z,9.53
2019-06-26T15:48:43.376Z,9.40
2019-06-26T15:51:18.099Z,9.53
2019-06-26T15:53:52.820Z,9.28
2019-06-26T15:56:27.711Z,9.68
2019-06-26T15:59:03.105Z,9.83
2019-06-26T16:01:37.830Z,9.80
2019-06-26T16:04:12.617Z,10.43
2019-06-26T16:06:47.526Z,9.75
2019-06-26T16:09:22.280Z,9.30
2019-06-26T16:11:58.999Z,9.15
2019-06-26T16:14:33.378Z,9.88
2019-06-26T16:17:18.615Z,8.98
2019-06-26T16:19:53.342Z,9.45
2019-06-26T16:22:32.579Z,9.23
2019-06-26T16:25:06.009Z,9.23
2019-06-26T16:27:40.664Z,9.73
2019-06-26T16:30:15.687Z,8.93
2019-06-26T16:32:50.422Z,9.78
2019-06-26T16:35:25.121Z,9.25
2019-06-26T16:38:00.840Z,9.00
2019-06-26T16:40:35.513Z,9.23
2019-06-26T16:43:10.320Z,9.45
2019-06-26T16:45:44.995Z,9.55
2019-06-26T16:48:19.753Z,9.70
2019-06-26T16:50:54.474Z,9.73
2019-06-26T16:53:29.480Z,10.13
2019-06-26T16:56:04.252Z,10.35
2019-06-26T16:58:39.084Z,10.05
2019-06-26T17:01:13.783Z,10.23
2019-06-26T17:03:48.460Z,10.53
2019-06-26T17:06:23.071Z,9.95
2019-06-26T17:08:57.821Z,10.23
2019-06-26T17:11:32.574Z,9.98
2019-06-26T17:14:07.374Z,9.93
2019-06-26T17:16:42.138Z,10.35
2019-06-26T17:19:16.796Z,9.93
2019-06-26T17:22:10.782Z,10.10
2019-06-26T17:24:45.475Z,9.93
2019-06-26T17:27:20.366Z,9.95
2019-06-26T17:29:56.155Z,10.48
2019-06-26T17:32:33.635Z,10.08
2019-06-26T17:35:08.638Z,9.73
2019-06-26T17:37:43.319Z,9.43
2019-06-26T17:40:18.166Z,9.90
2019-06-26T17:42:52.932Z,10.90
2019-06-26T17:45:27.662Z,10.78
2019-06-26T17:48:02.445Z,10.23
2019-06-26T17:50:37.274Z,10.32
2019-06-26T17:53:21.125Z,10.58
2019-06-26T17:55:48.424Z,10.53
2019-06-26T17:58:25.410Z,10.08
2019-06-26T18:01:00.885Z,10.78
2019-06-26T18:03:35.592Z,11.12
2019-06-26T18:06:10.393Z,11.95
2019-06-26T18:08:45.164Z,11.22
2019-06-26T18:11:19.845Z,11.53
2019-06-26T18:13:54.627Z,12.05
2019-06-26T18:16:29.488Z,11.55
2019-06-26T18:19:04.428Z,11.45
2019-06-26T18:21:39.242Z,12.05
2019-06-26T18:24:13.910Z,12.03
2019-06-26T18:26:49.561Z,11.80
2019-06-26T18:29:24.322Z,12.30
2019-06-26T18:31:59.050Z,11.28
2019-06-26T18:34:37.026Z,12.15
2019-06-26T18:37:11.830Z,12.20
2019-06-26T18:39:46.606Z,12.10
2019-06-26T18:42:21.464Z,11.70
2019-06-26T18:44:59.311Z,12.10
2019-06-26T18:47:34.201Z,12.15
2019-06-26T18:50:09.621Z,12.10
2019-06-26T18:52:44.575Z,11.97
2019-06-26T18:55:19.565Z,11.83
2019-06-26T18:57:54.746Z,12.23
2019-06-26T19:00:29.712Z,12.93
2019-06-26T19:03:04.732Z,11.68
2019-06-26T19:05:41.357Z,12.35
2019-06-26T19:08:16.597Z,11.80
2019-06-26T19:10:52.175Z,11.15
2019-06-26T19:13:27.174Z,11.00
2019-06-26T19:16:04.464Z,12.53
2019-06-26T19:18:38.761Z,11.50
2019-06-26T19:21:13.732Z,11.78
2019-06-26T19:23:48.815Z,11.50
2019-06-26T19:26:24.917Z,10.93
2019-06-26T19:28:59.975Z,11.22
2019-06-26T19:31:34.967Z,10.80
2019-06-26T19:34:11.460Z,10.93
2019-06-26T19:36:50.528Z,11.30
2019-06-26T19:39:28.547Z,11.10
2019-06-26T19:42:03.559Z,11.43
2019-06-26T19:44:38.552Z,11.05
2019-06-26T19:47:14.695Z,11.05
2019-06-26T19:49:50.796Z,10.88
2019-06-26T19:52:25.761Z,10.18
2019-06-26T19:55:00.790Z,10.60
2019-06-26T19:57:37.196Z,10.65
2019-06-26T20:00:12.446Z,10.25
2019-06-26T20:02:49.448Z,10.13
2019-06-26T20:05:24.696Z,9.70
2019-06-26T20:08:00.558Z,10.38
2019-06-26T20:10:35.990Z,10.40
2019-06-26T20:13:11.062Z,10.23
2019-06-26T20:15:46.202Z,10.05
2019-06-26T20:18:22.058Z,10.05
2019-06-26T20:20:57.246Z,10.00
2019-06-26T20:23:32.425Z,10.08
2019-06-26T20:26:07.503Z,10.35
2019-06-26T20:28:42.480Z,9.88
2019-06-26T20:31:17.507Z,10.32
2019-06-26T20:33:52.481Z,11.00
2019-06-26T20:36:27.579Z,11.73
2019-06-26T20:39:02.671Z,12.20
2019-06-26T20:41:37.770Z,12.40
2019-06-26T20:44:12.676Z,11.90
2019-06-26T20:46:47.671Z,12.28
2019-06-26T20:49:24.010Z,10.23
2019-06-26T20:51:58.788Z,12.65
2019-06-26T20:54:36.555Z,13.65
2019-06-26T20:57:13.849Z,12.90
2019-06-26T20:59:48.541Z,13.00
2019-06-26T21:02:23.331Z,13.90
2019-06-26T21:04:57.967Z,15.25
2019-06-26T21:07:32.626Z,15.08
2019-06-26T21:10:07.595Z,16.27
2019-06-26T21:12:42.328Z,16.00
2019-06-26T21:15:17.022Z,16.57
2019-06-26T21:17:51.866Z,16.30
2019-06-26T21:20:26.534Z,15.95
2019-06-26T21:23:01.162Z,16.05
2019-06-26T21:25:35.934Z,16.87
2019-06-26T21:28:10.720Z,16.60
2019-06-26T21:30:45.354Z,14.58
2019-06-26T21:33:20.069Z,15.30
2019-06-26T21:35:54.840Z,16.40
2019-06-26T21:38:29.559Z,16.97
2019-06-26T21:41:04.433Z,16.23
2019-06-26T21:43:40.420Z,16.77
2019-06-26T21:46:15.116Z,16.32
2019-06-26T21:48:49.842Z,15.35
2019-06-26T21:51:24.528Z,15.20
2019-06-26T21:53:59.182Z,13.65
2019-06-26T21:56:33.962Z,13.75
2019-06-26T21:59:08.751Z,12.35
2019-06-26T22:01:43.525Z,11.50
2019-06-26T22:04:18.304Z,11.12
2019-06-26T22:06:53.233Z,10.48
2019-06-26T22:09:27.978Z,10.50
2019-06-26T22:12:02.666Z,10.55
2019-06-26T22:14:37.471Z,11.38
2019-06-26T22:17:12.237Z,10.78
2019-06-26T22:19:47.005Z,10.75
2019-06-26T22:22:21.735Z,10.70
2019-06-26T22:24:56.555Z,11.22
2019-06-26T22:27:31.246Z,10.78
2019-06-26T22:30:10.720Z,11.25
2019-06-26T22:32:45.408Z,11.30
2019-06-26T22:35:20.215Z,10.80
2019-06-26T22:37:54.902Z,11.90
2019-06-26T22:40:29.718Z,11.40
2019-06-26T22:43:04.472Z,11.75
2019-06-26T22:45:41.125Z,11.68
2019-06-26T22:48:15.894Z,11.53
2019-06-26T22:50:50.693Z,11.08
2019-06-26T22:53:25.411Z,12.05
2019-06-26T22:56:07.567Z,12.47
2019-06-26T22:58:36.542Z,12.40
2019-06-26T23:01:11.361Z,13.20
2019-06-26T23:03:46.124Z,13.00
2019-06-26T23:06:20.913Z,13.43
2019-06-26T23:08:55.560Z,15.13
2019-06-26T23:11:30.380Z,13.98
2019-06-26T23:14:05.076Z,11.88
2019-06-26T23:16:39.873Z,13.10
2019-06-26T23:19:15.122Z,12.20
2019-06-26T23:21:50.055Z,12.18
2019-06-26T23:24:24.875Z,11.40
2019-06-26T23:26:59.682Z,11.25
2019-06-26T23:29:34.386Z,11.25
2019-06-26T23:32:09.189Z,11.25
2019-06-26T23:34:43.903Z,10.88
2019-06-26T23:37:20.356Z,10.50
2019-06-26T23:39:54.955Z,11.35
2019-06-26T23:42:29.592Z,11.70
2019-06-26T23:45:07.032Z,12.15
2019-06-26T23:47:41.767Z,11.97
2019-06-26T23:50:16.633Z,11.33
2019-06-26T23:52:51.402Z,10.20
2019-06-26T23:55:26.064Z,10.05
2019-06-26T23:58:00.821Z,10.32
